sensor_id;sensor_type;location;lat;lon;timestamp;P1;durP1;ratioP1;P2;durP2;ratioP2
41323;SDS011;27073;51.128;4.220;2022-11-11T00:03:47;17.75;;;11.35;;
41323;SDS011;27073;51.128;4.220;2022-11-11T00:06:31;15.07;;;11.40;;
41323;SDS011;27073;51.128;4.220;2022-11-11T00:09:15;18.30;;;11.95;;
41323;SDS011;27073;51.128;4.220;2022-11-11T00:11:59;17.40;;;12.43;;
41323;SDS011;27073;51.128;4.220;2022-11-11T00:14:43;17.15;;;12.02;;
41323;SDS011;27073;51.128;4.220;2022-11-11T00:17:28;16.42;;;11.63;;
41323;SDS011;27073;51.128;4.220;2022-11-11T00:20:31;18.40;;;11.43;;
41323;SDS011;27073;51.128;4.220;2022-11-11T00:23:34;14.70;;;11.68;;
41323;SDS011;27073;51.128;4.220;2022-11-11T00:26:37;17.70;;;11.88;;
41323;SDS011;27073;51.128;4.220;2022-11-11T00:29:21;16.48;;;11.40;;
41323;SDS011;27073;51.128;4.220;2022-11-11T00:32:06;16.33;;;11.55;;
41323;SDS011;27073;51.128;4.220;2022-11-11T00:35:07;16.05;;;11.50;;
41323;SDS011;27073;51.128;4.220;2022-11-11T00:38:11;15.88;;;12.35;;
41323;SDS011;27073;51.128;4.220;2022-11-11T00:41:19;16.15;;;12.02;;
41323;SDS011;27073;51.128;4.220;2022-11-11T00:44:05;21.23;;;12.05;;
41323;SDS011;27073;51.128;4.220;2022-11-11T00:46:49;17.05;;;11.38;;
41323;SDS011;27073;51.128;4.220;2022-11-11T00:49:52;13.40;;;10.30;;
41323;SDS011;27073;51.128;4.220;2022-11-11T00:52:55;22.23;;;11.30;;
41323;SDS011;27073;51.128;4.220;2022-11-11T00:55:39;16.08;;;10.95;;
41323;SDS011;27073;51.128;4.220;2022-11-11T00:58:24;15.07;;;10.70;;
41323;SDS011;27073;51.128;4.220;2022-11-11T01:01:10;16.20;;;9.70;;
41323;SDS011;27073;51.128;4.220;2022-11-11T01:03:55;21.38;;;11.45;;
41323;SDS011;27073;51.128;4.220;2022-11-11T01:06:40;14.23;;;11.20;;
41323;SDS011;27073;51.128;4.220;2022-11-11T01:09:24;15.68;;;10.40;;
41323;SDS011;27073;51.128;4.220;2022-11-11T01:12:08;15.50;;;10.98;;
41323;SDS011;27073;51.128;4.220;2022-11-11T01:14:52;12.82;;;10.45;;
41323;SDS011;27073;51.128;4.220;2022-11-11T01:17:36;18.15;;;10.75;;
41323;SDS011;27073;51.128;4.220;2022-11-11T01:20:20;14.85;;;10.48;;
41323;SDS011;27073;51.128;4.220;2022-11-11T01:23:05;15.70;;;9.88;;
41323;SDS011;27073;51.128;4.220;2022-11-11T01:25:49;20.23;;;11.05;;
41323;SDS011;27073;51.128;4.220;2022-11-11T01:28:35;12.52;;;9.82;;
41323;SDS011;27073;51.128;4.220;2022-11-11T01:31:20;18.58;;;10.48;;
41323;SDS011;27073;51.128;4.220;2022-11-11T01:34:05;13.23;;;9.52;;
41323;SDS011;27073;51.128;4.220;2022-11-11T01:36:50;15.30;;;10.35;;
41323;SDS011;27073;51.128;4.220;2022-11-11T01:39:34;12.65;;;9.25;;
41323;SDS011;27073;51.128;4.220;2022-11-11T01:42:18;15.43;;;10.70;;
41323;SDS011;27073;51.128;4.220;2022-11-11T01:45:38;15.80;;;9.55;;
41323;SDS011;27073;51.128;4.220;2022-11-11T01:54:32;17.10;;;11.00;;
41323;SDS011;27073;51.128;4.220;2022-11-11T01:57:24;16.27;;;9.90;;
41323;SDS011;27073;51.128;4.220;2022-11-11T02:00:22;13.43;;;9.68;;
41323;SDS011;27073;51.128;4.220;2022-11-11T02:03:08;16.13;;;9.57;;
41323;SDS011;27073;51.128;4.220;2022-11-11T02:05:53;15.35;;;9.75;;
41323;SDS011;27073;51.128;4.220;2022-11-11T02:08:40;17.75;;;10.90;;
41323;SDS011;27073;51.128;4.220;2022-11-11T02:11:25;15.63;;;10.25;;
41323;SDS011;27073;51.128;4.220;2022-11-11T02:14:31;12.48;;;9.88;;
41323;SDS011;27073;51.128;4.220;2022-11-11T02:17:19;15.00;;;9.35;;
41323;SDS011;27073;51.128;4.220;2022-11-11T02:20:04;13.82;;;10.18;;
41323;SDS011;27073;51.128;4.220;2022-11-11T02:22:56;15.57;;;9.90;;
41323;SDS011;27073;51.128;4.220;2022-11-11T02:25:45;15.07;;;9.32;;
41323;SDS011;27073;51.128;4.220;2022-11-11T02:28:32;16.38;;;10.25;;
41323;SDS011;27073;51.128;4.220;2022-11-11T02:31:17;15.75;;;9.75;;
41323;SDS011;27073;51.128;4.220;2022-11-11T02:34:01;12.25;;;9.90;;
41323;SDS011;27073;51.128;4.220;2022-11-11T02:36:46;13.60;;;9.43;;
41323;SDS011;27073;51.128;4.220;2022-11-11T02:39:30;14.23;;;10.23;;
41323;SDS011;27073;51.128;4.220;2022-11-11T02:42:16;16.23;;;10.73;;
41323;SDS011;27073;51.128;4.220;2022-11-11T02:45:04;17.48;;;10.70;;
41323;SDS011;27073;51.128;4.220;2022-11-11T02:47:48;17.52;;;11.32;;
41323;SDS011;27073;51.128;4.220;2022-11-11T02:50:32;14.98;;;10.95;;
41323;SDS011;27073;51.128;4.220;2022-11-11T02:53:16;16.92;;;11.25;;
41323;SDS011;27073;51.128;4.220;2022-11-11T02:56:00;16.05;;;11.02;;
41323;SDS011;27073;51.128;4.220;2022-11-11T02:58:44;14.85;;;11.07;;
41323;SDS011;27073;51.128;4.220;2022-11-11T03:01:28;16.45;;;11.60;;
41323;SDS011;27073;51.128;4.220;2022-11-11T03:04:13;12.65;;;9.63;;
41323;SDS011;27073;51.128;4.220;2022-11-11T03:06:57;15.80;;;10.25;;
41323;SDS011;27073;51.128;4.220;2022-11-11T03:09:42;17.10;;;11.10;;
41323;SDS011;27073;51.128;4.220;2022-11-11T03:12:26;14.27;;;10.02;;
41323;SDS011;27073;51.128;4.220;2022-11-11T03:15:10;13.65;;;9.82;;
41323;SDS011;27073;51.128;4.220;2022-11-11T03:17:54;18.77;;;9.82;;
41323;SDS011;27073;51.128;4.220;2022-11-11T03:20:38;15.93;;;10.18;;
41323;SDS011;27073;51.128;4.220;2022-11-11T03:23:41;12.63;;;9.75;;
41323;SDS011;27073;51.128;4.220;2022-11-11T03:26:25;14.43;;;9.30;;
41323;SDS011;27073;51.128;4.220;2022-11-11T03:29:10;16.27;;;10.05;;
41323;SDS011;27073;51.128;4.220;2022-11-11T03:31:54;14.00;;;9.07;;
41323;SDS011;27073;51.128;4.220;2022-11-11T03:34:38;15.50;;;9.63;;
41323;SDS011;27073;51.128;4.220;2022-11-11T03:37:23;14.05;;;9.90;;
41323;SDS011;27073;51.128;4.220;2022-11-11T03:40:25;14.18;;;9.13;;
41323;SDS011;27073;51.128;4.220;2022-11-11T03:43:10;14.80;;;9.27;;
41323;SDS011;27073;51.128;4.220;2022-11-11T03:45:56;11.05;;;8.90;;
41323;SDS011;27073;51.128;4.220;2022-11-11T03:48:41;11.52;;;8.20;;
41323;SDS011;27073;51.128;4.220;2022-11-11T03:51:26;16.38;;;9.35;;
41323;SDS011;27073;51.128;4.220;2022-11-11T03:54:10;20.80;;;9.77;;
41323;SDS011;27073;51.128;4.220;2022-11-11T03:56:54;19.23;;;10.05;;
41323;SDS011;27073;51.128;4.220;2022-11-11T04:00:01;13.65;;;10.18;;
41323;SDS011;27073;51.128;4.220;2022-11-11T04:02:46;12.85;;;10.25;;
41323;SDS011;27073;51.128;4.220;2022-11-11T04:05:50;18.27;;;12.35;;
41323;SDS011;27073;51.128;4.220;2022-11-11T04:09:06;14.32;;;10.80;;
41323;SDS011;27073;51.128;4.220;2022-11-11T04:12:09;14.80;;;10.77;;
41323;SDS011;27073;51.128;4.220;2022-11-11T04:14:53;12.75;;;11.00;;
41323;SDS011;27073;51.128;4.220;2022-11-11T04:17:56;13.75;;;10.45;;
41323;SDS011;27073;51.128;4.220;2022-11-11T04:20:41;18.02;;;11.27;;
41323;SDS011;27073;51.128;4.220;2022-11-11T04:23:45;16.05;;;11.98;;
41323;SDS011;27073;51.128;4.220;2022-11-11T04:26:29;14.20;;;10.75;;
41323;SDS011;27073;51.128;4.220;2022-11-11T04:29:13;14.07;;;11.45;;
41323;SDS011;27073;51.128;4.220;2022-11-11T04:32:13;13.57;;;10.70;;
41323;SDS011;27073;51.128;4.220;2022-11-11T04:35:23;15.68;;;11.70;;
41323;SDS011;27073;51.128;4.220;2022-11-11T04:38:09;13.30;;;10.95;;
41323;SDS011;27073;51.128;4.220;2022-11-11T04:41:12;15.38;;;11.02;;
41323;SDS011;27073;51.128;4.220;2022-11-11T04:43:56;13.63;;;10.65;;
41323;SDS011;27073;51.128;4.220;2022-11-11T04:46:59;16.52;;;10.38;;
41323;SDS011;27073;51.128;4.220;2022-11-11T04:49:43;13.10;;;11.40;;
41323;SDS011;27073;51.128;4.220;2022-11-11T04:52:28;15.07;;;11.05;;
41323;SDS011;27073;51.128;4.220;2022-11-11T04:55:13;13.90;;;10.65;;
41323;SDS011;27073;51.128;4.220;2022-11-11T04:58:18;13.32;;;10.85;;
41323;SDS011;27073;51.128;4.220;2022-11-11T05:01:03;12.80;;;10.85;;
41323;SDS011;27073;51.128;4.220;2022-11-11T05:03:48;16.65;;;11.50;;
41323;SDS011;27073;51.128;4.220;2022-11-11T05:06:32;16.40;;;11.60;;
41323;SDS011;27073;51.128;4.220;2022-11-11T05:09:35;13.60;;;10.57;;
41323;SDS011;27073;51.128;4.220;2022-11-11T05:12:19;17.05;;;10.63;;
41323;SDS011;27073;51.128;4.220;2022-11-11T05:15:03;14.20;;;11.45;;
41323;SDS011;27073;51.128;4.220;2022-11-11T05:18:10;16.73;;;10.70;;
41323;SDS011;27073;51.128;4.220;2022-11-11T05:21:15;14.48;;;10.10;;
41323;SDS011;27073;51.128;4.220;2022-11-11T05:24:09;12.15;;;10.38;;
41323;SDS011;27073;51.128;4.220;2022-11-11T05:27:12;14.63;;;10.13;;
41323;SDS011;27073;51.128;4.220;2022-11-11T05:29:56;14.82;;;10.43;;
41323;SDS011;27073;51.128;4.220;2022-11-11T05:32:41;14.68;;;11.82;;
41323;SDS011;27073;51.128;4.220;2022-11-11T05:35:26;14.48;;;10.48;;
41323;SDS011;27073;51.128;4.220;2022-11-11T05:38:10;17.63;;;11.52;;
41323;SDS011;27073;51.128;4.220;2022-11-11T05:41:03;13.02;;;10.15;;
41323;SDS011;27073;51.128;4.220;2022-11-11T05:43:48;14.75;;;10.82;;
41323;SDS011;27073;51.128;4.220;2022-11-11T05:46:32;15.98;;;11.45;;
41323;SDS011;27073;51.128;4.220;2022-11-11T05:49:16;16.95;;;12.68;;
41323;SDS011;27073;51.128;4.220;2022-11-11T05:52:01;17.85;;;11.35;;
41323;SDS011;27073;51.128;4.220;2022-11-11T05:54:46;16.17;;;11.77;;
41323;SDS011;27073;51.128;4.220;2022-11-11T05:57:30;15.77;;;12.02;;
41323;SDS011;27073;51.128;4.220;2022-11-11T06:00:14;18.08;;;11.25;;
41323;SDS011;27073;51.128;4.220;2022-11-11T06:03:03;18.02;;;12.55;;
41323;SDS011;27073;51.128;4.220;2022-11-11T06:05:49;15.40;;;11.18;;
41323;SDS011;27073;51.128;4.220;2022-11-11T06:08:34;18.42;;;11.02;;
41323;SDS011;27073;51.128;4.220;2022-11-11T06:11:19;13.10;;;10.98;;
41323;SDS011;27073;51.128;4.220;2022-11-11T06:14:04;13.88;;;11.48;;
41323;SDS011;27073;51.128;4.220;2022-11-11T06:16:48;13.75;;;10.95;;
41323;SDS011;27073;51.128;4.220;2022-11-11T06:19:32;14.80;;;11.35;;
41323;SDS011;27073;51.128;4.220;2022-11-11T06:22:16;13.85;;;10.77;;
41323;SDS011;27073;51.128;4.220;2022-11-11T06:25:21;20.27;;;11.52;;
41323;SDS011;27073;51.128;4.220;2022-11-11T06:28:25;15.43;;;11.15;;
41323;SDS011;27073;51.128;4.220;2022-11-11T06:31:10;14.93;;;10.57;;
41323;SDS011;27073;51.128;4.220;2022-11-11T06:34:05;14.60;;;12.18;;
41323;SDS011;27073;51.128;4.220;2022-11-11T06:36:50;15.52;;;11.15;;
41323;SDS011;27073;51.128;4.220;2022-11-11T06:39:34;16.52;;;12.07;;
41323;SDS011;27073;51.128;4.220;2022-11-11T06:42:18;14.05;;;11.30;;
41323;SDS011;27073;51.128;4.220;2022-11-11T06:45:02;13.15;;;10.80;;
41323;SDS011;27073;51.128;4.220;2022-11-11T06:47:46;12.88;;;10.75;;
41323;SDS011;27073;51.128;4.220;2022-11-11T06:50:31;14.63;;;11.52;;
41323;SDS011;27073;51.128;4.220;2022-11-11T06:53:16;16.20;;;9.90;;
41323;SDS011;27073;51.128;4.220;2022-11-11T06:56:01;12.75;;;10.57;;
41323;SDS011;27073;51.128;4.220;2022-11-11T06:58:45;13.50;;;10.70;;
41323;SDS011;27073;51.128;4.220;2022-11-11T07:01:30;14.70;;;11.15;;
41323;SDS011;27073;51.128;4.220;2022-11-11T07:04:14;14.43;;;10.80;;
41323;SDS011;27073;51.128;4.220;2022-11-11T07:06:58;14.65;;;11.15;;
41323;SDS011;27073;51.128;4.220;2022-11-11T07:09:42;11.95;;;10.63;;
41323;SDS011;27073;51.128;4.220;2022-11-11T07:12:27;13.23;;;10.13;;
41323;SDS011;27073;51.128;4.220;2022-11-11T07:15:11;12.73;;;9.70;;
41323;SDS011;27073;51.128;4.220;2022-11-11T07:17:55;12.85;;;10.00;;
41323;SDS011;27073;51.128;4.220;2022-11-11T07:20:39;12.27;;;9.80;;
41323;SDS011;27073;51.128;4.220;2022-11-11T07:23:24;14.25;;;9.85;;
41323;SDS011;27073;51.128;4.220;2022-11-11T07:26:08;14.85;;;10.52;;
41323;SDS011;27073;51.128;4.220;2022-11-11T07:28:52;14.48;;;10.13;;
41323;SDS011;27073;51.128;4.220;2022-11-11T07:31:36;13.52;;;9.85;;
41323;SDS011;27073;51.128;4.220;2022-11-11T07:34:20;14.13;;;10.45;;
41323;SDS011;27073;51.128;4.220;2022-11-11T07:37:04;16.35;;;10.90;;
41323;SDS011;27073;51.128;4.220;2022-11-11T07:39:48;12.43;;;9.75;;
41323;SDS011;27073;51.128;4.220;2022-11-11T07:42:36;16.80;;;10.68;;
41323;SDS011;27073;51.128;4.220;2022-11-11T07:45:20;14.68;;;9.65;;
41323;SDS011;27073;51.128;4.220;2022-11-11T07:48:04;12.25;;;9.43;;
41323;SDS011;27073;51.128;4.220;2022-11-11T07:50:50;12.43;;;9.50;;
41323;SDS011;27073;51.128;4.220;2022-11-11T07:53:38;11.65;;;8.20;;
41323;SDS011;27073;51.128;4.220;2022-11-11T07:56:22;15.70;;;8.35;;
41323;SDS011;27073;51.128;4.220;2022-11-11T07:59:06;14.65;;;9.75;;
41323;SDS011;27073;51.128;4.220;2022-11-11T08:01:50;12.10;;;9.55;;
41323;SDS011;27073;51.128;4.220;2022-11-11T08:04:34;11.68;;;8.98;;
41323;SDS011;27073;51.128;4.220;2022-11-11T08:07:18;11.23;;;9.43;;
41323;SDS011;27073;51.128;4.220;2022-11-11T08:10:02;14.35;;;8.77;;
41323;SDS011;27073;51.128;4.220;2022-11-11T08:12:52;18.33;;;9.75;;
41323;SDS011;27073;51.128;4.220;2022-11-11T08:16:00;13.27;;;10.13;;
41323;SDS011;27073;51.128;4.220;2022-11-11T08:18:45;14.35;;;9.20;;
41323;SDS011;27073;51.128;4.220;2022-11-11T08:21:29;11.10;;;8.95;;
41323;SDS011;27073;51.128;4.220;2022-11-11T08:24:13;10.63;;;8.70;;
41323;SDS011;27073;51.128;4.220;2022-11-11T08:26:59;11.98;;;8.80;;
41323;SDS011;27073;51.128;4.220;2022-11-11T08:29:43;12.68;;;8.82;;
41323;SDS011;27073;51.128;4.220;2022-11-11T08:32:27;12.60;;;7.57;;
41323;SDS011;27073;51.128;4.220;2022-11-11T08:35:11;13.48;;;7.88;;
41323;SDS011;27073;51.128;4.220;2022-11-11T08:37:55;10.68;;;7.38;;
41323;SDS011;27073;51.128;4.220;2022-11-11T08:40:44;10.00;;;7.43;;
41323;SDS011;27073;51.128;4.220;2022-11-11T08:43:28;10.55;;;7.55;;
41323;SDS011;27073;51.128;4.220;2022-11-11T08:46:15;10.48;;;7.85;;
41323;SDS011;27073;51.128;4.220;2022-11-11T08:48:59;12.85;;;7.25;;
41323;SDS011;27073;51.128;4.220;2022-11-11T08:51:43;12.20;;;7.00;;
41323;SDS011;27073;51.128;4.220;2022-11-11T08:54:27;12.60;;;7.28;;
41323;SDS011;27073;51.128;4.220;2022-11-11T08:57:11;9.05;;;7.00;;
41323;SDS011;27073;51.128;4.220;2022-11-11T08:59:55;8.95;;;7.60;;
41323;SDS011;27073;51.128;4.220;2022-11-11T09:02:39;12.02;;;7.90;;
41323;SDS011;27073;51.128;4.220;2022-11-11T09:05:23;12.05;;;7.50;;
41323;SDS011;27073;51.128;4.220;2022-11-11T09:08:07;10.57;;;7.57;;
41323;SDS011;27073;51.128;4.220;2022-11-11T09:10:51;11.05;;;6.90;;
41323;SDS011;27073;51.128;4.220;2022-11-11T09:13:35;13.02;;;8.15;;
41323;SDS011;27073;51.128;4.220;2022-11-11T09:16:19;10.65;;;7.28;;
41323;SDS011;27073;51.128;4.220;2022-11-11T09:19:03;8.77;;;5.65;;
41323;SDS011;27073;51.128;4.220;2022-11-11T09:21:49;9.23;;;5.65;;
41323;SDS011;27073;51.128;4.220;2022-11-11T09:24:34;8.68;;;6.07;;
41323;SDS011;27073;51.128;4.220;2022-11-11T09:27:18;14.77;;;6.30;;
41323;SDS011;27073;51.128;4.220;2022-11-11T09:30:02;10.02;;;6.35;;
41323;SDS011;27073;51.128;4.220;2022-11-11T09:32:47;10.75;;;6.22;;
41323;SDS011;27073;51.128;4.220;2022-11-11T09:35:31;9.68;;;6.35;;
41323;SDS011;27073;51.128;4.220;2022-11-11T09:38:15;8.77;;;6.85;;
41323;SDS011;27073;51.128;4.220;2022-11-11T09:43:53;11.40;;;7.15;;
41323;SDS011;27073;51.128;4.220;2022-11-11T09:52:56;7.82;;;5.95;;
41323;SDS011;27073;51.128;4.220;2022-11-11T09:55:52;9.40;;;6.20;;
41323;SDS011;27073;51.128;4.220;2022-11-11T09:58:58;12.67;;;7.03;;
41323;SDS011;27073;51.128;4.220;2022-11-11T10:02:08;12.55;;;6.30;;
41323;SDS011;27073;51.128;4.220;2022-11-11T10:05:04;9.88;;;6.50;;
41323;SDS011;27073;51.128;4.220;2022-11-11T10:07:55;9.85;;;7.15;;
41323;SDS011;27073;51.128;4.220;2022-11-11T10:10:50;12.35;;;8.07;;
41323;SDS011;27073;51.128;4.220;2022-11-11T10:13:36;10.18;;;6.57;;
41323;SDS011;27073;51.128;4.220;2022-11-11T10:19:40;10.30;;;7.93;;
41323;SDS011;27073;51.128;4.220;2022-11-11T10:22:45;12.48;;;8.18;;
41323;SDS011;27073;51.128;4.220;2022-11-11T10:25:30;11.65;;;6.70;;
41323;SDS011;27073;51.128;4.220;2022-11-11T10:28:16;12.63;;;7.88;;
41323;SDS011;27073;51.128;4.220;2022-11-11T10:31:03;12.38;;;7.57;;
41323;SDS011;27073;51.128;4.220;2022-11-11T10:34:02;9.55;;;7.70;;
41323;SDS011;27073;51.128;4.220;2022-11-11T10:36:58;10.20;;;7.50;;
41323;SDS011;27073;51.128;4.220;2022-11-11T10:42:54;11.88;;;8.88;;
41323;SDS011;27073;51.128;4.220;2022-11-11T10:45:39;11.60;;;8.10;;
41323;SDS011;27073;51.128;4.220;2022-11-11T10:51:57;10.82;;;7.63;;
41323;SDS011;27073;51.128;4.220;2022-11-11T10:54:54;11.90;;;7.97;;
41323;SDS011;27073;51.128;4.220;2022-11-11T10:57:52;10.70;;;7.53;;
41323;SDS011;27073;51.128;4.220;2022-11-11T11:00:42;14.05;;;8.45;;
41323;SDS011;27073;51.128;4.220;2022-11-11T11:03:33;10.43;;;7.68;;
41323;SDS011;27073;51.128;4.220;2022-11-11T11:06:24;9.77;;;8.13;;
41323;SDS011;27073;51.128;4.220;2022-11-11T11:09:25;13.27;;;8.10;;
41323;SDS011;27073;51.128;4.220;2022-11-11T11:12:19;10.73;;;7.25;;
41323;SDS011;27073;51.128;4.220;2022-11-11T11:15:15;11.45;;;7.15;;
41323;SDS011;27073;51.128;4.220;2022-11-11T11:18:16;9.35;;;7.07;;
41323;SDS011;27073;51.128;4.220;2022-11-11T11:21:05;11.43;;;7.35;;
41323;SDS011;27073;51.128;4.220;2022-11-11T11:23:50;8.07;;;6.55;;
41323;SDS011;27073;51.128;4.220;2022-11-11T11:26:44;8.40;;;6.45;;
41323;SDS011;27073;51.128;4.220;2022-11-11T11:29:32;9.25;;;7.00;;
41323;SDS011;27073;51.128;4.220;2022-11-11T11:32:20;8.27;;;6.47;;
41323;SDS011;27073;51.128;4.220;2022-11-11T11:38:15;7.45;;;5.78;;
41323;SDS011;27073;51.128;4.220;2022-11-11T11:41:01;8.63;;;6.30;;
41323;SDS011;27073;51.128;4.220;2022-11-11T11:43:45;7.47;;;6.28;;
41323;SDS011;27073;51.128;4.220;2022-11-11T11:46:33;8.30;;;6.47;;
41323;SDS011;27073;51.128;4.220;2022-11-11T11:49:31;8.30;;;6.10;;
41323;SDS011;27073;51.128;4.220;2022-11-11T11:55:17;10.88;;;6.47;;
41323;SDS011;27073;51.128;4.220;2022-11-11T12:05:00;7.47;;;5.78;;
41323;SDS011;27073;51.128;4.220;2022-11-11T12:08:21;6.18;;;5.00;;
41323;SDS011;27073;51.128;4.220;2022-11-11T12:23:55;7.28;;;5.88;;
41323;SDS011;27073;51.128;4.220;2022-11-11T12:27:02;8.45;;;5.60;;
41323;SDS011;27073;51.128;4.220;2022-11-11T12:30:10;6.97;;;5.43;;
41323;SDS011;27073;51.128;4.220;2022-11-11T12:36:12;10.13;;;5.72;;
41323;SDS011;27073;51.128;4.220;2022-11-11T12:39:26;9.93;;;4.93;;
41323;SDS011;27073;51.128;4.220;2022-11-11T12:42:41;6.13;;;5.07;;
41323;SDS011;27073;51.128;4.220;2022-11-11T12:45:53;7.03;;;4.78;;
41323;SDS011;27073;51.128;4.220;2022-11-11T12:48:50;7.25;;;4.32;;
41323;SDS011;27073;51.128;4.220;2022-11-11T12:51:43;6.75;;;4.55;;
41323;SDS011;27073;51.128;4.220;2022-11-11T12:58:15;8.80;;;5.20;;
41323;SDS011;27073;51.128;4.220;2022-11-11T13:01:29;8.18;;;4.40;;
41323;SDS011;27073;51.128;4.220;2022-11-11T13:11:11;7.82;;;4.20;;
41323;SDS011;27073;51.128;4.220;2022-11-11T13:17:23;5.57;;;3.60;;
41323;SDS011;27073;51.128;4.220;2022-11-11T13:20:14;5.95;;;4.03;;
41323;SDS011;27073;51.128;4.220;2022-11-11T13:26:03;5.50;;;3.80;;
41323;SDS011;27073;51.128;4.220;2022-11-11T13:29:12;5.25;;;3.65;;
41323;SDS011;27073;51.128;4.220;2022-11-11T13:32:23;7.50;;;3.97;;
41323;SDS011;27073;51.128;4.220;2022-11-11T13:41:37;7.20;;;3.70;;
41323;SDS011;27073;51.128;4.220;2022-11-11T13:44:26;7.00;;;3.70;;
41323;SDS011;27073;51.128;4.220;2022-11-11T13:47:18;6.28;;;3.58;;
41323;SDS011;27073;51.128;4.220;2022-11-11T13:50:11;5.05;;;3.60;;
41323;SDS011;27073;51.128;4.220;2022-11-11T13:53:05;6.00;;;4.22;;
41323;SDS011;27073;51.128;4.220;2022-11-11T13:56:03;4.55;;;3.70;;
41323;SDS011;27073;51.128;4.220;2022-11-11T13:58:48;5.85;;;3.50;;
41323;SDS011;27073;51.128;4.220;2022-11-11T14:01:36;4.68;;;3.33;;
41323;SDS011;27073;51.128;4.220;2022-11-11T14:04:23;5.78;;;3.22;;
41323;SDS011;27073;51.128;4.220;2022-11-11T14:07:07;8.15;;;4.13;;
41323;SDS011;27073;51.128;4.220;2022-11-11T14:09:55;5.30;;;3.03;;
41323;SDS011;27073;51.128;4.220;2022-11-11T14:15:37;3.55;;;2.38;;
41323;SDS011;27073;51.128;4.220;2022-11-11T14:18:32;5.40;;;2.60;;
41323;SDS011;27073;51.128;4.220;2022-11-11T14:27:30;5.70;;;2.70;;
41323;SDS011;27073;51.128;4.220;2022-11-11T14:30:27;5.57;;;2.50;;
41323;SDS011;27073;51.128;4.220;2022-11-11T14:33:23;7.82;;;3.20;;
41323;SDS011;27073;51.128;4.220;2022-11-11T14:36:23;5.93;;;2.90;;
41323;SDS011;27073;51.128;4.220;2022-11-11T14:54:46;7.70;;;3.28;;
41323;SDS011;27073;51.128;4.220;2022-11-11T14:58:00;9.65;;;4.88;;
41323;SDS011;27073;51.128;4.220;2022-11-11T15:01:16;7.43;;;4.38;;
41323;SDS011;27073;51.128;4.220;2022-11-11T15:04:03;8.15;;;4.18;;
41323;SDS011;27073;51.128;4.220;2022-11-11T15:06:54;6.03;;;3.53;;
41323;SDS011;27073;51.128;4.220;2022-11-11T15:12:54;7.72;;;4.18;;
41323;SDS011;27073;51.128;4.220;2022-11-11T15:27:53;7.40;;;3.78;;
41323;SDS011;27073;51.128;4.220;2022-11-11T15:30:48;6.70;;;3.50;;
41323;SDS011;27073;51.128;4.220;2022-11-11T15:39:37;5.38;;;3.80;;
41323;SDS011;27073;51.128;4.220;2022-11-11T15:42:58;7.63;;;4.47;;
41323;SDS011;27073;51.128;4.220;2022-11-11T15:45:35;7.47;;;3.90;;
41323;SDS011;27073;51.128;4.220;2022-11-11T15:48:20;9.57;;;4.18;;
41323;SDS011;27073;51.128;4.220;2022-11-11T15:51:15;8.95;;;3.63;;
41323;SDS011;27073;51.128;4.220;2022-11-11T15:54:09;8.57;;;4.28;;
41323;SDS011;27073;51.128;4.220;2022-11-11T16:00:19;6.00;;;4.22;;
41323;SDS011;27073;51.128;4.220;2022-11-11T16:03:13;9.55;;;4.53;;
41323;SDS011;27073;51.128;4.220;2022-11-11T16:06:11;7.20;;;4.10;;
41323;SDS011;27073;51.128;4.220;2022-11-11T16:08:57;8.73;;;4.37;;
41323;SDS011;27073;51.128;4.220;2022-11-11T16:11:42;8.88;;;4.60;;
41323;SDS011;27073;51.128;4.220;2022-11-11T16:14:31;6.65;;;4.53;;
41323;SDS011;27073;51.128;4.220;2022-11-11T16:17:20;9.40;;;5.25;;
41323;SDS011;27073;51.128;4.220;2022-11-11T16:20:14;7.55;;;4.75;;
41323;SDS011;27073;51.128;4.220;2022-11-11T16:23:02;7.68;;;5.18;;
41323;SDS011;27073;51.128;4.220;2022-11-11T16:25:50;6.88;;;5.40;;
41323;SDS011;27073;51.128;4.220;2022-11-11T16:28:37;9.52;;;6.50;;
41323;SDS011;27073;51.128;4.220;2022-11-11T16:34:37;10.55;;;6.05;;
41323;SDS011;27073;51.128;4.220;2022-11-11T16:37:25;9.65;;;6.45;;
41323;SDS011;27073;51.128;4.220;2022-11-11T16:40:33;10.05;;;6.30;;
41323;SDS011;27073;51.128;4.220;2022-11-11T16:52:24;13.18;;;8.65;;
41323;SDS011;27073;51.128;4.220;2022-11-11T16:55:10;13.32;;;8.70;;
41323;SDS011;27073;51.128;4.220;2022-11-11T16:58:10;18.17;;;12.45;;
41323;SDS011;27073;51.128;4.220;2022-11-11T17:01:02;13.38;;;9.05;;
41323;SDS011;27073;51.128;4.220;2022-11-11T17:03:54;16.23;;;10.35;;
41323;SDS011;27073;51.128;4.220;2022-11-11T17:06:53;10.40;;;8.00;;
41323;SDS011;27073;51.128;4.220;2022-11-11T17:09:44;11.80;;;7.72;;
41323;SDS011;27073;51.128;4.220;2022-11-11T17:12:29;11.07;;;7.70;;
41323;SDS011;27073;51.128;4.220;2022-11-11T17:15:15;9.73;;;7.72;;
41323;SDS011;27073;51.128;4.220;2022-11-11T17:18:00;11.30;;;8.18;;
41323;SDS011;27073;51.128;4.220;2022-11-11T17:20:44;12.35;;;8.35;;
41323;SDS011;27073;51.128;4.220;2022-11-11T17:23:29;16.35;;;10.23;;
41323;SDS011;27073;51.128;4.220;2022-11-11T17:26:14;12.88;;;8.93;;
41323;SDS011;27073;51.128;4.220;2022-11-11T17:29:00;12.15;;;8.70;;
41323;SDS011;27073;51.128;4.220;2022-11-11T17:31:44;14.98;;;10.68;;
41323;SDS011;27073;51.128;4.220;2022-11-11T17:34:28;15.00;;;10.82;;
41323;SDS011;27073;51.128;4.220;2022-11-11T17:37:12;15.50;;;11.68;;
41323;SDS011;27073;51.128;4.220;2022-11-11T17:39:56;15.18;;;11.48;;
41323;SDS011;27073;51.128;4.220;2022-11-11T17:42:40;20.13;;;13.05;;
41323;SDS011;27073;51.128;4.220;2022-11-11T17:45:24;19.58;;;14.18;;
41323;SDS011;27073;51.128;4.220;2022-11-11T17:48:10;19.48;;;15.27;;
41323;SDS011;27073;51.128;4.220;2022-11-11T17:50:54;24.92;;;16.25;;
41323;SDS011;27073;51.128;4.220;2022-11-11T17:53:39;24.75;;;18.42;;
41323;SDS011;27073;51.128;4.220;2022-11-11T17:56:23;23.50;;;16.70;;
41323;SDS011;27073;51.128;4.220;2022-11-11T17:59:09;22.27;;;16.65;;
41323;SDS011;27073;51.128;4.220;2022-11-11T18:01:53;23.02;;;16.73;;
41323;SDS011;27073;51.128;4.220;2022-11-11T18:04:37;23.67;;;17.05;;
41323;SDS011;27073;51.128;4.220;2022-11-11T18:07:22;24.10;;;17.35;;
41323;SDS011;27073;51.128;4.220;2022-11-11T18:10:06;23.00;;;16.95;;
41323;SDS011;27073;51.128;4.220;2022-11-11T18:12:51;24.13;;;16.35;;
41323;SDS011;27073;51.128;4.220;2022-11-11T18:15:35;25.58;;;16.40;;
41323;SDS011;27073;51.128;4.220;2022-11-11T18:18:19;23.30;;;16.85;;
41323;SDS011;27073;51.128;4.220;2022-11-11T18:21:03;21.23;;;16.40;;
41323;SDS011;27073;51.128;4.220;2022-11-11T18:23:48;20.45;;;14.68;;
41323;SDS011;27073;51.128;4.220;2022-11-11T18:26:33;21.65;;;15.20;;
41323;SDS011;27073;51.128;4.220;2022-11-11T18:29:17;19.35;;;14.98;;
41323;SDS011;27073;51.128;4.220;2022-11-11T18:32:01;23.15;;;14.85;;
41323;SDS011;27073;51.128;4.220;2022-11-11T18:34:45;21.20;;;14.35;;
41323;SDS011;27073;51.128;4.220;2022-11-11T18:37:29;22.08;;;14.27;;
41323;SDS011;27073;51.128;4.220;2022-11-11T18:40:13;23.23;;;14.80;;
41323;SDS011;27073;51.128;4.220;2022-11-11T18:42:58;22.45;;;15.75;;
41323;SDS011;27073;51.128;4.220;2022-11-11T18:45:42;25.60;;;16.67;;
41323;SDS011;27073;51.128;4.220;2022-11-11T18:48:26;22.23;;;13.40;;
41323;SDS011;27073;51.128;4.220;2022-11-11T18:51:11;22.77;;;13.70;;
41323;SDS011;27073;51.128;4.220;2022-11-11T18:53:57;21.92;;;13.45;;
41323;SDS011;27073;51.128;4.220;2022-11-11T18:56:41;20.52;;;13.95;;
41323;SDS011;27073;51.128;4.220;2022-11-11T18:59:25;19.10;;;13.20;;
41323;SDS011;27073;51.128;4.220;2022-11-11T19:02:10;18.30;;;12.80;;